• Join FlightAware (Why Join?)
  • Login
  • US Flag 
08:39PM EDT


 

Airport Tracker/Info


-or-


 

Live Flight TrackerFlight Track Log ✈ DAL3720 ✈ 21-Apr-2013 ✈ KCLT - KCVG

Flight Track Log - Related Links

Times and Time Zones

All times are in EDT time to prevent confusion due to time zone crossing. See the DAL3720 flight status page for this flight to view local times or setup timezone preferences in your user account.

Time Position Orientation Groundspeed Altitude Reporting Facility
EDT Latitude Longitude Course Direction KTS MPH feet Rate Location/Type
10:18AM 35.2186 -80.9575 334° Northwest 156 180 1,400  Level Atlanta Center
10:19AM 35.2756 -80.9911 334° Northwest 269 310 4,000 3,120 Climbing Atlanta Center
10:20AM 35.3467 -80.9986 355° North 241 277 7,900 3,300 Climbing Atlanta Center
10:21AM 35.4214 -80.9781 13° North 260 299 10,600 2,220 Climbing Atlanta Center
10:22AM 35.5167 -80.9489 14° North 319 367 12,400 2,100 Climbing Atlanta Center
10:23AM 35.6114 -80.9811 345° North 340 391 14,800 2,220 Climbing Atlanta Center
10:24AM 35.7025 -81.0364 334° Northwest 354 407 16,900 1,800 Climbing Atlanta Center
10:25AM 35.7978 -81.0969 333° Northwest 374 430 18,500 1,560 Climbing Atlanta Center
10:26AM 35.8972 -81.1550 335° Northwest 384 442 20,100 1,500 Climbing Atlanta Center
10:27AM 35.9986 -81.2156 334° Northwest 401 461 21,500 1,380 Climbing Atlanta Center
10:28AM 36.1000 -81.2736 335° Northwest 406 467 22,900 1,200 Climbing Atlanta Center
10:29AM 36.2058 -81.3344 335° Northwest 412 474 24,000 420 Climbing Atlanta Center
10:30AM 36.3158 -81.4819 313° West 409 471 24,000  Level Indianapolis Center
10:31AM 36.3736 -81.6281 296° West 405 466 24,000  Level Indianapolis Center
10:32AM 36.4231 -81.7567 296° West 411 473 24,000  Level Indianapolis Center
10:33AM 36.4703 -81.8803 295° West 400 460 24,000  Level Indianapolis Center
10:35AM 36.5200 -82.0064 296° West 404 465 24,000  Level Indianapolis Center
10:36AM 36.5683 -82.1356 295° West 410 472 24,000  Level Indianapolis Center
10:37AM 36.6167 -82.2636 295° West 410 472 24,000  Level Indianapolis Center
10:38AM 36.6650 -82.3914 295° West 408 470 24,000  Level Indianapolis Center
10:39AM 36.7214 -82.5411 295° West 408 470 24,000  Level Indianapolis Center
10:40AM 36.7697 -82.6694 295° West 407 468 24,000  Level Indianapolis Center
10:41AM 36.8306 -82.7878 303° West 406 467 24,000  Level Indianapolis Center
10:42AM 36.9017 -82.9094 306° West 416 479 24,000  Level Indianapolis Center